createdAt,value
2018-12-05T00:00:27.424Z,99472.70
2018-12-05T00:00:58.543Z,99474.41
2018-12-05T00:01:29.661Z,99478.27
2018-12-05T00:02:00.784Z,99478.72
2018-12-05T00:02:31.912Z,99474.00
2018-12-05T00:03:03.047Z,99471.84
2018-12-05T00:03:34.169Z,99472.69
2018-12-05T00:04:05.327Z,99474.00
2018-12-05T00:04:36.445Z,99483.00
2018-12-05T00:05:07.579Z,99477.84
2018-12-05T00:05:38.701Z,99477.40
2018-12-05T00:06:09.817Z,99480.84
2018-12-05T00:06:40.932Z,99477.86
2018-12-05T00:07:12.113Z,99479.12
2018-12-05T00:07:43.273Z,99488.16
2018-12-05T00:08:14.390Z,99482.58
2018-12-05T00:08:45.518Z,99480.00
2018-12-05T00:09:16.636Z,99484.72
2018-12-05T00:09:47.757Z,99480.86
2018-12-05T00:10:18.878Z,99484.72
2018-12-05T00:10:49.997Z,99485.13
2018-12-05T00:11:21.118Z,99483.41
2018-12-05T00:11:52.233Z,99485.14
2018-12-05T00:12:23.384Z,99482.13
2018-12-05T00:12:54.513Z,99483.87
2018-12-05T00:13:25.665Z,99486.44
2018-12-05T00:13:56.799Z,99483.87
2018-12-05T00:14:27.962Z,99487.71
2018-12-05T00:14:59.085Z,99486.42
2018-12-05T00:15:30.236Z,99485.13
2018-12-05T00:16:01.383Z,99484.72
2018-12-05T00:16:32.521Z,99488.58
2018-12-05T00:17:03.633Z,99481.72
2018-12-05T00:17:34.750Z,99484.70
2018-12-05T00:18:05.865Z,99483.84
2018-12-05T00:18:37.015Z,99487.70
2018-12-05T00:19:08.132Z,99485.98
2018-12-05T00:19:39.301Z,99487.28
2018-12-05T00:20:10.418Z,99485.16
2018-12-05T00:20:41.542Z,99487.28
2018-12-05T00:21:12.675Z,99485.14
2018-12-05T00:21:43.795Z,99489.87
2018-12-05T00:22:14.925Z,99486.44
2018-12-05T00:22:46.051Z,99487.28
2018-12-05T00:23:17.159Z,99485.13
2018-12-05T00:23:48.271Z,99488.13
2018-12-05T00:24:19.394Z,99492.00
2018-12-05T00:24:51.215Z,99489.02
2018-12-05T00:25:22.379Z,99490.70
2018-12-05T00:25:53.488Z,99460.25
2018-12-05T00:26:24.601Z,99491.59
2018-12-05T00:26:55.721Z,99490.30
2018-12-05T00:27:26.834Z,99488.13
2018-12-05T00:27:57.946Z,99488.55
2018-12-05T00:28:29.071Z,99488.99
2018-12-05T00:29:00.177Z,99484.69
2018-12-05T00:29:31.290Z,99486.84
2018-12-05T00:30:02.444Z,99485.13
2018-12-05T00:30:33.565Z,99482.97
2018-12-05T00:31:04.680Z,99482.56
2018-12-05T00:31:35.791Z,99482.97
2018-12-05T00:32:06.940Z,99482.55
2018-12-05T00:32:38.095Z,99487.27
2018-12-05T00:33:09.216Z,99484.25
2018-12-05T00:33:40.425Z,99482.11
2018-12-05T00:34:11.689Z,99484.69
2018-12-05T00:34:42.797Z,99488.15
2018-12-05T00:35:13.953Z,99488.55
2018-12-05T00:35:45.182Z,99487.28
2018-12-05T00:36:16.298Z,99486.84
2018-12-05T00:36:47.428Z,99491.15
2018-12-05T00:37:18.557Z,99488.12
2018-12-05T00:37:49.661Z,99488.12
2018-12-05T00:38:20.786Z,99489.42
2018-12-05T00:38:51.910Z,99488.56
2018-12-05T00:39:23.034Z,99487.26
2018-12-05T00:39:54.186Z,99488.97
2018-12-05T00:40:25.294Z,99488.56
2018-12-05T00:40:56.396Z,99485.09
2018-12-05T00:41:27.549Z,99491.12
2018-12-05T00:41:58.716Z,99490.27
2018-12-05T00:42:29.833Z,99491.55
2018-12-05T00:43:00.950Z,99487.25
2018-12-05T00:43:32.066Z,99486.83
2018-12-05T00:44:03.176Z,99493.70
2018-12-05T00:44:34.280Z,99489.41
2018-12-05T00:45:05.405Z,99488.53
2018-12-05T00:45:36.519Z,99489.41
2018-12-05T00:46:07.637Z,99485.95
2018-12-05T00:46:38.754Z,99489.83
2018-12-05T00:47:09.906Z,99487.69
2018-12-05T00:47:42.235Z,99485.97
2018-12-05T00:48:13.351Z,99484.25
2018-12-05T00:48:44.464Z,99485.97
2018-12-05T00:49:15.581Z,99486.80
2018-12-05T00:49:46.703Z,99482.52
2018-12-05T00:50:17.817Z,99486.81
2018-12-05T00:50:48.925Z,99485.94
2018-12-05T00:51:20.087Z,99485.08
2018-12-05T00:51:51.199Z,99487.64
2018-12-05T00:52:22.324Z,99485.07
2018-12-05T00:52:53.423Z,99480.76
2018-12-05T00:53:24.559Z,99480.76
2018-12-05T00:53:55.669Z,99488.94
2018-12-05T00:54:26.900Z,99489.78
2018-12-05T00:54:57.999Z,99481.60
2018-12-05T00:55:29.155Z,99491.05
2018-12-05T00:56:00.260Z,99486.77
2018-12-05T00:56:31.397Z,99489.33
2018-12-05T00:57:02.536Z,99491.47
2018-12-05T00:57:33.644Z,99496.63
2018-12-05T00:58:04.761Z,99485.90
2018-12-05T00:58:35.907Z,99489.75
2018-12-05T00:59:07.021Z,99491.06
2018-12-05T00:59:38.189Z,99493.63
2018-12-05T01:00:09.304Z,99487.20
2018-12-05T01:00:40.402Z,99540.48
2018-12-05T01:01:11.516Z,99485.48
2018-12-05T01:01:42.621Z,99491.94
2018-12-05T01:02:13.749Z,99489.34
2018-12-05T01:02:44.853Z,99490.23
2018-12-05T01:03:16.000Z,99485.06
2018-12-05T01:03:47.105Z,99487.22
2018-12-05T01:04:18.221Z,99490.23
2018-12-05T01:04:49.326Z,99483.76
2018-12-05T01:05:20.477Z,99489.34
2018-12-05T01:05:51.577Z,99482.03
2018-12-05T01:06:22.708Z,99479.45
2018-12-05T01:06:53.817Z,99482.91
2018-12-05T01:07:24.931Z,99482.49
2018-12-05T01:07:56.024Z,99485.47
2018-12-05T01:08:27.124Z,99477.33
2018-12-05T01:08:58.228Z,99483.77
2018-12-05T01:09:29.329Z,99483.33
2018-12-05T01:10:00.434Z,99481.19
2018-12-05T01:10:31.580Z,99480.31
2018-12-05T01:11:02.681Z,99483.31
2018-12-05T01:11:33.794Z,99484.16
2018-12-05T01:12:04.910Z,99486.73
2018-12-05T01:12:36.634Z,99487.16
2018-12-05T01:13:07.734Z,99487.16
2018-12-05T01:13:38.843Z,99488.45
2018-12-05T01:14:09.945Z,99486.30
2018-12-05T01:14:41.036Z,99490.58
2018-12-05T01:15:12.153Z,99487.98
2018-12-05T01:15:43.333Z,99489.28
2018-12-05T01:16:14.485Z,99484.98
2018-12-05T01:16:45.646Z,99485.41
2018-12-05T01:17:16.764Z,99490.58
2018-12-05T01:17:47.870Z,99489.27
2018-12-05T01:18:18.972Z,99490.14
2018-12-05T01:18:50.122Z,99490.14
2018-12-05T01:19:21.927Z,99488.40
2018-12-05T01:19:53.030Z,99485.39
2018-12-05T01:20:24.125Z,99486.25
2018-12-05T01:20:55.233Z,99490.08
2018-12-05T01:21:26.347Z,99493.09
2018-12-05T01:21:57.486Z,99488.38
2018-12-05T01:22:28.584Z,99493.52
2018-12-05T01:22:59.736Z,99489.66
2018-12-05T01:23:30.844Z,99491.80
2018-12-05T01:24:01.965Z,99484.51
2018-12-05T01:24:33.073Z,99488.38
2018-12-05T01:25:04.199Z,99483.22
2018-12-05T01:25:35.338Z,99481.91
2018-12-05T01:26:06.476Z,99485.36
2018-12-05T01:26:37.581Z,99481.05
2018-12-05T01:27:09.821Z,99479.34
2018-12-05T01:27:40.941Z,99485.78
2018-12-05T01:28:12.098Z,99481.06
2018-12-05T01:28:43.208Z,99482.78
2018-12-05T01:29:14.357Z,99484.53
2018-12-05T01:29:45.499Z,99484.50
2018-12-05T01:30:16.736Z,99477.63
2018-12-05T01:30:47.883Z,99480.66
2018-12-05T01:31:18.977Z,99480.23
2018-12-05T01:31:50.086Z,99484.09
2018-12-05T01:32:21.223Z,99480.66
2018-12-05T01:32:52.330Z,99482.37
2018-12-05T01:33:23.459Z,99477.65
2018-12-05T01:33:54.590Z,99479.80
2018-12-05T01:34:25.697Z,99481.52
2018-12-05T01:34:56.822Z,99480.64
2018-12-05T01:35:27.937Z,99480.66
2018-12-05T01:35:59.056Z,99477.20
2018-12-05T01:36:30.165Z,99481.52
2018-12-05T01:37:01.321Z,99480.64
2018-12-05T01:37:32.444Z,99481.12
2018-12-05T01:38:03.561Z,99478.09
2018-12-05T01:38:34.684Z,99482.40
2018-12-05T01:39:05.789Z,99478.54
2018-12-05T01:39:36.893Z,99480.67
2018-12-05T01:40:07.997Z,99476.82
2018-12-05T01:40:39.518Z,99481.53
2018-12-05T01:41:10.617Z,99481.55
2018-12-05T01:41:41.724Z,99476.38
2018-12-05T01:42:12.894Z,99478.53
2018-12-05T01:42:44.034Z,99478.53
2018-12-05T01:43:15.140Z,99481.95
2018-12-05T01:43:46.266Z,99475.52
2018-12-05T01:44:17.371Z,99481.97
2018-12-05T01:44:48.495Z,99480.68
2018-12-05T01:45:19.602Z,99480.27
2018-12-05T01:45:50.718Z,99478.95
2018-12-05T01:46:21.871Z,99481.14
2018-12-05T01:46:53.032Z,99481.99
2018-12-05T01:47:24.149Z,99483.27
2018-12-05T01:47:55.284Z,99478.13
2018-12-05T01:48:26.386Z,99478.56
2018-12-05T01:48:57.516Z,99476.43
2018-12-05T01:49:28.626Z,99481.13
2018-12-05T01:49:59.733Z,99479.84
2018-12-05T01:50:30.852Z,99479.00
2018-12-05T01:51:01.959Z,99478.56
2018-12-05T01:51:33.122Z,99479.86
2018-12-05T01:52:04.227Z,99475.56
2018-12-05T01:52:35.395Z,99478.16
2018-12-05T01:53:06.509Z,99481.58
2018-12-05T01:53:38.457Z,99479.86
2018-12-05T01:54:09.581Z,99484.56
2018-12-05T01:54:40.685Z,99479.85
2018-12-05T01:55:11.790Z,99477.70
2018-12-05T01:55:42.929Z,99478.55
2018-12-05T01:56:14.051Z,99484.13
2018-12-05T01:56:45.154Z,99483.72
2018-12-05T01:57:16.274Z,99482.44
2018-12-05T01:57:47.394Z,99480.29
2018-12-05T01:58:18.516Z,99477.72
2018-12-05T01:58:49.640Z,99475.98
2018-12-05T01:59:20.745Z,99481.16
2018-12-05T01:59:51.840Z,99479.02
2018-12-05T02:00:22.984Z,99479.45
2018-12-05T02:00:54.083Z,99477.30
2018-12-05T02:01:25.255Z,99474.31
2018-12-05T02:01:56.405Z,99476.88
2018-12-05T02:02:27.597Z,99479.91
2018-12-05T02:02:58.762Z,99483.34
2018-12-05T02:03:29.881Z,99478.61
2018-12-05T02:04:00.994Z,99477.34
2018-12-05T02:04:32.097Z,99478.19
2018-12-05T02:05:03.230Z,99478.19
2018-12-05T02:05:34.376Z,99474.75
2018-12-05T02:06:05.481Z,99478.61
2018-12-05T02:06:36.573Z,99481.19
2018-12-05T02:07:07.678Z,99473.91
2018-12-05T02:07:38.784Z,99479.50
2018-12-05T02:08:09.882Z,99474.75
2018-12-05T02:08:40.984Z,99479.49
2018-12-05T02:09:12.097Z,99474.34
2018-12-05T02:09:43.228Z,99480.33
2018-12-05T02:10:14.331Z,99478.19
2018-12-05T02:10:45.487Z,99482.06
2018-12-05T02:11:16.602Z,99478.64
2018-12-05T02:11:47.746Z,99478.64
2018-12-05T02:12:18.895Z,99480.34
2018-12-05T02:12:50.001Z,99478.20
2018-12-05T02:13:21.121Z,99480.34
2018-12-05T02:13:52.217Z,99481.63
2018-12-05T02:14:23.341Z,99485.08
2018-12-05T02:14:54.454Z,99480.80
2018-12-05T02:15:25.568Z,99474.77
2018-12-05T02:15:56.728Z,99475.63
2018-12-05T02:16:27.833Z,99476.06
2018-12-05T02:16:58.973Z,99479.92
2018-12-05T02:17:30.133Z,99480.36
2018-12-05T02:18:01.244Z,99483.39
2018-12-05T02:18:32.355Z,99478.23
2018-12-05T02:19:03.512Z,99482.95
2018-12-05T02:19:34.752Z,99481.64
2018-12-05T02:20:05.855Z,99482.95
2018-12-05T02:20:36.970Z,99482.07
2018-12-05T02:21:08.079Z,99478.66
2018-12-05T02:21:39.187Z,99485.96
2018-12-05T02:22:10.301Z,99484.69
2018-12-05T02:22:41.408Z,99485.11
2018-12-05T02:23:12.572Z,99485.54
2018-12-05T02:23:43.686Z,99358.09
2018-12-05T02:24:14.812Z,99481.67
2018-12-05T02:24:45.958Z,99487.71
2018-12-05T02:25:17.098Z,99488.13
2018-12-05T02:25:48.257Z,99484.27
2018-12-05T02:26:19.400Z,99484.69
2018-12-05T02:26:50.507Z,99480.41
2018-12-05T02:27:21.613Z,99476.55
2018-12-05T02:27:52.729Z,99484.28
2018-12-05T02:28:23.885Z,99488.15
2018-12-05T02:28:54.997Z,99484.30
2018-12-05T02:29:27.249Z,99487.28
2018-12-05T02:29:58.394Z,99485.98
2018-12-05T02:30:29.545Z,99486.88
2018-12-05T02:31:00.673Z,99482.14
2018-12-05T02:31:31.801Z,99486.42
2018-12-05T02:32:03.968Z,99485.56
2018-12-05T02:32:35.078Z,99486.44
2018-12-05T02:33:06.194Z,99486.86
2018-12-05T02:33:37.320Z,99492.02
2018-12-05T02:34:08.456Z,99487.73
2018-12-05T02:34:39.573Z,99488.58
2018-12-05T02:35:10.749Z,99493.30
2018-12-05T02:35:41.857Z,99491.59
2018-12-05T02:36:12.974Z,99486.84
2018-12-05T02:36:44.089Z,99492.88
2018-12-05T02:37:15.204Z,99492.02
2018-12-05T02:37:46.332Z,99495.44
2018-12-05T02:38:17.447Z,99500.18
2018-12-05T02:38:48.566Z,99491.58
2018-12-05T02:39:19.691Z,99489.87
2018-12-05T02:39:50.877Z,99493.74
2018-12-05T02:40:22.026Z,99495.88
2018-12-05T02:40:53.171Z,99493.31
2018-12-05T02:41:24.276Z,99489.02
2018-12-05T02:41:55.387Z,99487.73
2018-12-05T02:42:26.501Z,99490.30
2018-12-05T02:42:57.651Z,99493.28
2018-12-05T02:43:28.856Z,99492.00
2018-12-05T02:43:59.972Z,99489.87
2018-12-05T02:44:31.097Z,99489.42
2018-12-05T02:45:02.300Z,99496.30
2018-12-05T02:45:33.575Z,99493.28
2018-12-05T02:46:04.681Z,99493.72
2018-12-05T02:46:35.782Z,99498.47
2018-12-05T02:47:06.927Z,99491.59
2018-12-05T02:47:38.070Z,99493.31
2018-12-05T02:48:09.186Z,99501.45
2018-12-05T02:48:40.308Z,99498.02
2018-12-05T02:49:11.421Z,99504.05
2018-12-05T02:49:42.525Z,99502.33
2018-12-05T02:50:13.642Z,99508.77
2018-12-05T02:50:44.747Z,99510.47
2018-12-05T02:51:15.863Z,99504.88
2018-12-05T02:51:46.970Z,99508.31
2018-12-05T02:52:18.091Z,99509.59
2018-12-05T02:52:49.237Z,99507.46
2018-12-05T02:53:20.358Z,99506.62
2018-12-05T02:53:51.476Z,99507.46
2018-12-05T02:54:22.622Z,99511.33
2018-12-05T02:54:53.737Z,99515.17
2018-12-05T02:55:24.836Z,99510.04
2018-12-05T02:55:55.950Z,99511.30
2018-12-05T02:56:27.096Z,99515.16
2018-12-05T02:56:58.224Z,99512.59
2018-12-05T02:57:29.339Z,99515.19
2018-12-05T02:58:00.522Z,99517.77
2018-12-05T02:58:31.701Z,99513.45
2018-12-05T02:59:02.814Z,99513.91
2018-12-05T02:59:33.921Z,99519.03
2018-12-05T03:00:05.047Z,99521.61
2018-12-05T03:00:36.164Z,99517.77
2018-12-05T03:01:07.309Z,99517.33
2018-12-05T03:01:38.422Z,99519.91
2018-12-05T03:02:09.583Z,99513.87
2018-12-05T03:02:40.745Z,99523.77
2018-12-05T03:03:11.854Z,99517.33
2018-12-05T03:03:42.974Z,99519.03
2018-12-05T03:04:14.084Z,99517.30
2018-12-05T03:04:45.218Z,99511.72
2018-12-05T03:05:16.327Z,99516.47
2018-12-05T03:05:47.437Z,99516.03
2018-12-05T03:06:18.545Z,99516.88
2018-12-05T03:06:49.670Z,99518.61
2018-12-05T03:07:20.794Z,99518.61
2018-12-05T03:07:51.976Z,99522.02
2018-12-05T03:08:23.186Z,99523.74
2018-12-05T03:08:54.357Z,99519.00
2018-12-05T03:09:25.516Z,99515.59
2018-12-05T03:09:56.619Z,99518.16
2018-12-05T03:10:27.748Z,99524.59
2018-12-05T03:10:58.864Z,99517.28
2018-12-05T03:11:29.981Z,99521.59
2018-12-05T03:12:01.092Z,99516.00
2018-12-05T03:12:32.211Z,99519.85
2018-12-05T03:13:03.339Z,99522.00
2018-12-05T03:13:34.456Z,99526.28
2018-12-05T03:14:05.586Z,99527.56
2018-12-05T03:14:36.740Z,99523.27
2018-12-05T03:15:07.869Z,99521.10
2018-12-05T03:15:39.037Z,99527.98
2018-12-05T03:16:10.149Z,99530.55
2018-12-05T03:16:41.267Z,99531.39
2018-12-05T03:17:12.368Z,99529.70
2018-12-05T03:17:43.475Z,99522.83
2018-12-05T03:18:14.580Z,99526.69
2018-12-05T03:18:45.726Z,99530.97
2018-12-05T03:19:16.842Z,99526.67
2018-12-05T03:19:47.985Z,99521.53
2018-12-05T03:20:19.147Z,99523.64
2018-12-05T03:20:50.270Z,99524.92
2018-12-05T03:21:21.543Z,99526.63
2018-12-05T03:21:52.685Z,99526.21
2018-12-05T03:22:23.795Z,99524.93
2018-12-05T03:22:54.920Z,99525.34
2018-12-05T03:23:26.046Z,99523.17
2018-12-05T03:23:57.154Z,99530.45
2018-12-05T03:24:28.273Z,99526.16
2018-12-05T03:24:59.421Z,99527.89
2018-12-05T03:25:30.540Z,99526.14
2018-12-05T03:26:01.683Z,99523.97
2018-12-05T03:26:32.837Z,99526.11
2018-12-05T03:27:03.995Z,99528.28
2018-12-05T03:27:35.114Z,99523.98
2018-12-05T03:28:06.297Z,99532.98
2018-12-05T03:28:37.409Z,99523.54
2018-12-05T03:29:08.534Z,99532.54
2018-12-05T03:29:39.636Z,99529.13
2018-12-05T03:30:10.763Z,99530.81
2018-12-05T03:30:41.924Z,99526.95
2018-12-05T03:31:13.106Z,99530.38
2018-12-05T03:31:44.221Z,99530.78
2018-12-05T03:32:15.363Z,99529.94
2018-12-05T03:32:46.530Z,99532.07
2018-12-05T03:33:17.700Z,99529.94
2018-12-05T03:33:48.829Z,99530.34
2018-12-05T03:34:19.946Z,99534.64
2018-12-05T03:34:51.068Z,99531.20
2018-12-05T03:35:22.180Z,99531.60
2018-12-05T03:35:53.293Z,99532.89
2018-12-05T03:36:24.402Z,99528.59
2018-12-05T03:36:55.558Z,99530.69
2018-12-05T03:37:26.683Z,99526.83
2018-12-05T03:37:57.830Z,99528.52
2018-12-05T03:38:28.971Z,99524.27
2018-12-05T03:39:00.074Z,99531.09
2018-12-05T03:39:31.189Z,99529.77
2018-12-05T03:40:02.306Z,99528.08
2018-12-05T03:40:33.534Z,99531.94
2018-12-05T03:41:04.681Z,99531.94
2018-12-05T03:41:35.822Z,99528.48
2018-12-05T03:42:06.929Z,99526.35
2018-12-05T03:42:38.044Z,99530.21
2018-12-05T03:43:09.178Z,99527.64
2018-12-05T03:43:40.285Z,99528.92
2018-12-05T03:44:11.399Z,99532.74
2018-12-05T03:44:42.511Z,99531.45
2018-12-05T03:45:13.637Z,99534.44
2018-12-05T03:45:44.793Z,99537.00
2018-12-05T03:46:15.922Z,99531.86
2018-12-05T03:46:47.078Z,99537.88
2018-12-05T03:47:18.189Z,99535.72
2018-12-05T03:47:49.293Z,99537.88
2018-12-05T03:48:20.396Z,99532.74
2018-12-05T03:48:51.498Z,99537.88
2018-12-05T03:49:22.615Z,99537.04
2018-12-05T03:49:53.850Z,99535.31
2018-12-05T03:50:24.957Z,99534.47
2018-12-05T03:50:56.063Z,99532.74
2018-12-05T03:51:27.241Z,99534.47
2018-12-05T03:51:58.351Z,98969.59
2018-12-05T03:52:29.469Z,99534.43
2018-12-05T03:53:00.573Z,99541.73
2018-12-05T03:53:31.730Z,99540.45
2018-12-05T03:54:02.845Z,99540.02
2018-12-05T03:54:33.969Z,99533.14
2018-12-05T03:55:05.078Z,99538.73
2018-12-05T03:55:36.178Z,99536.60
2018-12-05T03:56:07.286Z,99537.48
2018-12-05T03:56:38.442Z,99534.50
2018-12-05T03:57:09.550Z,99536.20
2018-12-05T03:57:40.675Z,99539.24
2018-12-05T03:58:11.820Z,99541.38
2018-12-05T03:58:42.932Z,99540.93
2018-12-05T03:59:14.045Z,99540.09
2018-12-05T03:59:45.162Z,99533.22
2018-12-05T04:00:16.291Z,99537.92
2018-12-05T04:00:47.427Z,99542.22
2018-12-05T04:01:18.536Z,99541.78
2018-12-05T04:01:49.695Z,99539.65
2018-12-05T04:02:20.853Z,99542.22
2018-12-05T04:02:51.965Z,99543.95
2018-12-05T04:03:23.083Z,99543.10
2018-12-05T04:03:54.248Z,99542.22
2018-12-05T04:04:25.361Z,99542.25
2018-12-05T04:04:56.465Z,99543.95
2018-12-05T04:05:27.578Z,99543.95
2018-12-05T04:05:58.681Z,99549.09
2018-12-05T04:06:29.823Z,99548.68
2018-12-05T04:07:00.928Z,99544.83
2018-12-05T04:07:32.075Z,99546.95
2018-12-05T04:08:03.195Z,99546.95
2018-12-05T04:08:34.318Z,99538.40
2018-12-05T04:09:05.431Z,99550.84
2018-12-05T04:09:36.543Z,99543.14
2018-12-05T04:10:07.651Z,99544.86
2018-12-05T04:10:38.768Z,99548.28
2018-12-05T04:11:09.884Z,99550.00
2018-12-05T04:11:40.993Z,99549.59
2018-12-05T04:12:12.145Z,99541.04
2018-12-05T04:12:43.261Z,99547.06
2018-12-05T04:13:14.373Z,99547.94
2018-12-05T04:13:45.500Z,99545.38
2018-12-05T04:14:16.608Z,99549.27
2018-12-05T04:14:47.708Z,99552.70
2018-12-05T04:15:18.822Z,99547.12
2018-12-05T04:15:49.932Z,99551.42
2018-12-05T04:16:21.051Z,99547.56
2018-12-05T04:16:52.160Z,99550.58
2018-12-05T04:17:23.303Z,99548.41
2018-12-05T04:17:54.411Z,99549.27
2018-12-05T04:18:25.547Z,99548.38
2018-12-05T04:18:56.665Z,99552.68
2018-12-05T04:19:27.823Z,99553.52
2018-12-05T04:19:58.932Z,99201.36
2018-12-05T04:20:30.054Z,99552.64
2018-12-05T04:21:01.211Z,99555.22
2018-12-05T04:21:32.327Z,99555.66
2018-12-05T04:22:03.453Z,99556.95
2018-12-05T04:22:34.576Z,99556.50
2018-12-05T04:23:05.692Z,99556.50
2018-12-05T04:23:36.801Z,99554.34
2018-12-05T04:24:08.003Z,99562.93
2018-12-05T04:24:39.157Z,99566.34
2018-12-05T04:25:10.279Z,99560.33
2018-12-05T04:25:41.390Z,99560.77
2018-12-05T04:26:12.538Z,99563.34
2018-12-05T04:26:43.651Z,99561.17
2018-12-05T04:27:14.759Z,99562.89
2018-12-05T04:27:45.906Z,99559.00
2018-12-05T04:28:17.017Z,99565.87
2018-12-05T04:28:48.115Z,99559.89
2018-12-05T04:29:19.240Z,99555.62
2018-12-05T04:29:50.360Z,99559.92
2018-12-05T04:30:21.468Z,99556.91
2018-12-05T04:30:52.589Z,99557.75
2018-12-05T04:31:23.733Z,99562.90
2018-12-05T04:31:54.860Z,99563.74
2018-12-05T04:32:25.974Z,99559.89
2018-12-05T04:32:57.101Z,99563.34
2018-12-05T04:33:28.226Z,99564.99
2018-12-05T04:33:59.381Z,99560.29
2018-12-05T04:34:30.492Z,99561.13
2018-12-05T04:35:01.621Z,99562.42
2018-12-05T04:35:32.746Z,99562.42
2018-12-05T04:36:03.870Z,99562.86
2018-12-05T04:36:35.017Z,99564.55
2018-12-05T04:37:06.125Z,99569.28
2018-12-05T04:37:37.235Z,99577.00
2018-12-05T04:38:08.333Z,99568.41
2018-12-05T04:38:39.440Z,99568.44
2018-12-05T04:39:11.138Z,99568.89
2018-12-05T04:39:42.246Z,99565.03
2018-12-05T04:40:13.351Z,99570.20
2018-12-05T04:40:44.491Z,99571.09
2018-12-05T04:41:15.625Z,99570.23
2018-12-05T04:41:46.808Z,99570.68
2018-12-05T04:42:17.925Z,99567.30
2018-12-05T04:42:49.047Z,99575.45
2018-12-05T04:43:20.156Z,99576.77
2018-12-05T04:43:51.279Z,99581.06
2018-12-05T04:44:22.385Z,99573.34
2018-12-05T04:44:53.494Z,99573.38
2018-12-05T04:45:24.633Z,99581.53
2018-12-05T04:45:55.752Z,99581.13
2018-12-05T04:46:26.867Z,99578.55
2018-12-05T04:46:58.036Z,99577.27
2018-12-05T04:47:29.144Z,99574.69
2018-12-05T04:48:00.257Z,99577.70
2018-12-05T04:48:31.361Z,99572.55
2018-12-05T04:49:02.474Z,99575.13
2018-12-05T04:49:33.587Z,99575.13
2018-12-05T04:50:04.696Z,99575.13
2018-12-05T04:50:35.810Z,99577.26
2018-12-05T04:51:06.912Z,99574.69
2018-12-05T04:51:38.027Z,99573.84
2018-12-05T04:52:09.181Z,99575.97
2018-12-05T04:52:40.291Z,99572.99
2018-12-05T04:53:11.434Z,99580.27
2018-12-05T04:53:42.545Z,99577.70
2018-12-05T04:54:13.658Z,99578.55
2018-12-05T04:54:44.764Z,99585.42
2018-12-05T04:55:15.899Z,99578.11
2018-12-05T04:55:47.019Z,99579.42
2018-12-05T04:56:18.132Z,99582.00
2018-12-05T04:56:49.253Z,99577.29
2018-12-05T04:57:20.372Z,99582.00
2018-12-05T04:57:51.477Z,99583.72
2018-12-05T04:58:22.625Z,99581.14
2018-12-05T04:58:53.733Z,99583.31
2018-12-05T04:59:24.854Z,99585.00
2018-12-05T04:59:55.968Z,99590.19
2018-12-05T05:00:27.138Z,99589.74
2018-12-05T05:00:58.264Z,99588.45
2018-12-05T05:01:29.374Z,99591.46
2018-12-05T05:02:00.538Z,99593.62
2018-12-05T05:02:31.681Z,99598.34
2018-12-05T05:03:02.792Z,99601.79
2018-12-05T05:03:33.905Z,99601.34
2018-12-05T05:04:05.029Z,99603.51
2018-12-05T05:04:36.132Z,99601.76
2018-12-05T05:05:07.244Z,99605.56
2018-12-05T05:05:38.349Z,99600.30
2018-12-05T05:06:09.449Z,99598.20
2018-12-05T05:06:41.779Z,99600.36
2018-12-05T05:07:13.309Z,99600.36
2018-12-05T05:07:44.561Z,99598.66
2018-12-05T05:08:15.672Z,99605.13
2018-12-05T05:08:46.806Z,99602.97
2018-12-05T05:09:17.932Z,99598.26
2018-12-05T05:09:49.049Z,99596.97
2018-12-05T05:10:20.192Z,99598.28
2018-12-05T05:10:51.302Z,99599.57
2018-12-05T05:11:22.414Z,99606.47
2018-12-05T05:11:53.534Z,99606.50
2018-12-05T05:12:24.669Z,99608.63
2018-12-05T05:12:55.789Z,99610.36
2018-12-05T05:13:26.946Z,99610.35
2018-12-05T05:13:58.067Z,99615.53
2018-12-05T05:14:29.189Z,99612.11
2018-12-05T05:15:00.311Z,99618.10
2018-12-05T05:15:31.419Z,99615.95
2018-12-05T05:16:02.554Z,99617.64
2018-12-05T05:16:33.672Z,99619.31
2018-12-05T05:17:04.792Z,99616.30
2018-12-05T05:17:35.918Z,99613.25
2018-12-05T05:18:07.039Z,99610.69
2018-12-05T05:18:38.200Z,99617.93
2018-12-05T05:19:09.330Z,99622.63
2018-12-05T05:19:40.442Z,99617.93
2018-12-05T05:20:12.037Z,99611.94
2018-12-05T05:20:43.410Z,99619.25
2018-12-05T05:21:14.520Z,99613.22
2018-12-05T05:21:45.645Z,99620.47
2018-12-05T05:22:16.809Z,99622.19
2018-12-05T05:22:47.931Z,99617.52
2018-12-05T05:23:19.056Z,99620.53
2018-12-05T05:23:50.188Z,99619.25
2018-12-05T05:24:21.296Z,99626.09
2018-12-05T05:24:52.552Z,99621.38
2018-12-05T05:25:23.661Z,99628.69
2018-12-05T05:25:54.783Z,99625.33
2018-12-05T05:26:25.901Z,99627.09
2018-12-05T05:26:57.016Z,99622.38
2018-12-05T05:27:28.152Z,99630.54
2018-12-05T05:27:59.280Z,99622.81
2018-12-05T05:28:30.393Z,99630.13
2018-12-05T05:29:01.500Z,99627.97
2018-12-05T05:29:32.615Z,99630.92
2018-12-05T05:30:03.749Z,99630.89
2018-12-05T05:30:34.880Z,99632.17
2018-12-05T05:31:06.005Z,99632.62
2018-12-05T05:31:37.134Z,99636.45
2018-12-05T05:32:08.278Z,99630.45
2018-12-05T05:32:39.395Z,99630.42
2018-12-05T05:33:10.508Z,99634.28
2018-12-05T05:33:41.620Z,99636.00
2018-12-05T05:34:12.731Z,99632.15
2018-12-05T05:34:43.838Z,99634.31
2018-12-05T05:35:14.946Z,99635.63
2018-12-05T05:35:46.101Z,99635.22
2018-12-05T05:36:17.208Z,99630.95
2018-12-05T05:36:48.309Z,99633.52
2018-12-05T05:37:19.484Z,99634.84
2018-12-05T05:37:50.647Z,99631.41
2018-12-05T05:38:21.850Z,99640.01
2018-12-05T05:38:52.962Z,99631.03
2018-12-05T05:39:24.076Z,99637.45
2018-12-05T05:39:55.176Z,99632.34
2018-12-05T05:40:26.279Z,99635.34
2018-12-05T05:40:57.387Z,99633.20
2018-12-05T05:41:28.498Z,99634.93
2018-12-05T05:41:59.605Z,99634.08
2018-12-05T05:42:30.724Z,99630.22
2018-12-05T05:43:01.837Z,99627.23
2018-12-05T05:43:32.962Z,99631.09
2018-12-05T05:44:04.077Z,99632.81
2018-12-05T05:44:35.228Z,99630.23
2018-12-05T05:45:06.340Z,99634.51
2018-12-05T05:45:37.449Z,99634.10
2018-12-05T05:46:08.570Z,99633.69
2018-12-05T05:46:39.674Z,99629.81
2018-12-05T05:47:10.779Z,99634.97
2018-12-05T05:47:41.919Z,99634.55
2018-12-05T05:48:13.057Z,99632.84
2018-12-05T05:48:44.169Z,99634.58
2018-12-05T05:49:15.281Z,99627.69
2018-12-05T05:49:46.434Z,99639.31
2018-12-05T05:50:17.565Z,99317.14
2018-12-05T05:50:48.668Z,99635.42
2018-12-05T05:51:19.801Z,99633.72
2018-12-05T05:51:50.926Z,99636.30
2018-12-05T05:52:22.033Z,99639.31
2018-12-05T05:52:53.195Z,99644.05
2018-12-05T05:53:24.289Z,99644.05
2018-12-05T05:53:55.398Z,99642.34
2018-12-05T05:54:26.592Z,99641.91
2018-12-05T05:54:57.779Z,99645.77
2018-12-05T05:55:28.892Z,99647.51
2018-12-05T05:56:00.004Z,99644.93
2018-12-05T05:56:31.121Z,99645.79
2018-12-05T05:57:02.291Z,99648.39
2018-12-05T05:57:33.441Z,99650.52
2018-12-05T05:58:04.558Z,99653.55
2018-12-05T05:58:35.688Z,99648.81
2018-12-05T05:59:06.824Z,99649.66
2018-12-05T05:59:37.953Z,99648.36
2018-12-05T06:00:09.068Z,99655.23
2018-12-05T06:00:40.182Z,99656.11
2018-12-05T06:01:11.298Z,99656.54
2018-12-05T06:01:42.450Z,99663.42
2018-12-05T06:02:13.570Z,99655.24
2018-12-05T06:02:44.676Z,99660.84
2018-12-05T06:03:15.786Z,99663.44
2018-12-05T06:03:46.927Z,99659.99
2018-12-05T06:04:18.056Z,99662.13
2018-12-05T06:04:49.155Z,99664.72
2018-12-05T06:05:20.265Z,99660.88
2018-12-05T06:05:51.374Z,99662.59